Time;durP1;ratioP1;P1;durP2;ratioP2;P2;SDS_P1;SDS_P2;PMS_P1;PMS_P2;Temp;Humidity;BMP_temperature;BMP_pressure;BME280_temperature;BME280_humidity;BME280_pressure;Samples;Min_cycle;Max_cycle;Signal;HPM_P1;HPM_P2
2023/09/12 00:01:33;;;;;;;8.27;3.45;;;;;;;17.62;50.90;94790.53;4176505;28;20056;-75
2023/09/12 00:03:35;;;;;;;8.52;3.60;;;;;;;17.63;50.57;94791.34;4167123;28;20053;-75
2023/09/12 00:05:37;;;;;;;8.32;3.50;;;;;;;17.65;50.59;94789.31;4192002;28;20447;-76
2023/09/12 00:07:40;;;;;;;9.45;3.72;;;;;;;17.68;50.53;94787.09;4193269;28;20125;-76
2023/09/12 00:09:42;;;;;;;7.72;3.90;;;;;;;17.75;50.55;94782.59;4193091;28;20049;-76
2023/09/12 00:11:43;;;;;;;4.82;3.35;;;;;;;17.83;50.39;94784.25;4190034;28;20066;-74
2023/09/12 00:13:45;;;;;;;8.20;3.53;;;;;;;17.89;50.68;94794.06;4192004;28;20127;-78
2023/09/12 00:15:47;;;;;;;6.90;3.30;;;;;;;17.91;50.28;94792.03;4188536;28;20049;-76
2023/09/12 00:17:49;;;;;;;13.13;3.47;;;;;;;17.93;50.40;94787.34;4191055;28;20070;-75
2023/09/12 00:19:51;;;;;;;7.88;3.30;;;;;;;17.95;50.31;94785.31;4192247;28;20059;-76
2023/09/12 00:21:53;;;;;;;4.68;3.35;;;;;;;17.97;50.39;94785.09;4190771;28;20049;-75
2023/09/12 00:23:55;;;;;;;8.77;3.23;;;;;;;17.94;50.77;94791.63;4192512;28;20148;-76
2023/09/12 00:25:58;;;;;;;4.45;3.17;;;;;;;17.86;50.89;94788.34;4192516;28;20087;-76
2023/09/12 00:27:59;;;;;;;5.13;3.42;;;;;;;17.76;50.92;94796.66;4193813;28;20063;-77
2023/09/12 00:30:01;;;;;;;7.15;3.40;;;;;;;17.67;50.99;94795.22;4180632;28;20073;-75
2023/09/12 00:32:03;;;;;;;4.90;3.40;;;;;;;17.61;51.46;94799.47;4194223;28;20114;-75
2023/09/12 00:34:05;;;;;;;11.07;3.65;;;;;;;17.60;51.33;94801.31;4173366;28;20198;-75
2023/09/12 00:36:07;;;;;;;5.30;3.47;;;;;;;17.46;51.57;94804.94;4194116;28;20168;-77
2023/09/12 00:38:09;;;;;;;6.22;3.35;;;;;;;17.38;51.60;94803.28;4181631;28;20165;-76
2023/09/12 00:40:11;;;;;;;7.50;3.70;;;;;;;17.35;51.67;94803.66;4189014;28;20363;-74
2023/09/12 00:42:13;;;;;;;8.55;3.45;;;;;;;17.32;51.60;94803.28;4187524;28;20459;-75
2023/09/12 00:44:15;;;;;;;5.82;3.70;;;;;;;17.32;51.45;94803.28;4181869;28;20407;-76
2023/09/12 00:46:19;;;;;;;7.10;3.47;;;;;;;17.08;51.80;94807.22;4192699;28;20067;-76
2023/09/12 00:48:21;;;;;;;7.75;3.15;;;;;;;16.78;52.78;94807.47;4181511;28;20136;-75
2023/09/12 00:50:24;;;;;;;8.57;3.80;;;;;;;16.70;53.03;94811.06;4177384;28;20064;-76
2023/09/12 00:52:26;;;;;;;4.40;2.95;;;;;;;16.64;53.24;94811.84;4172374;28;20045;-78
2023/09/12 00:54:28;;;;;;;9.80;3.63;;;;;;;16.67;53.32;94810.63;4201212;28;20040;-74
2023/09/12 00:56:32;;;;;;;7.40;3.70;;;;;;;16.52;53.68;94816.00;4193801;28;20442;-75
2023/09/12 00:58:33;;;;;;;6.78;3.45;;;;;;;16.37;54.22;94810.84;4190862;28;20398;-76
2023/09/12 01:00:35;;;;;;;4.70;3.50;;;;;;;16.31;54.78;94816.91;4183117;28;20093;-77
2023/09/12 01:02:39;;;;;;;5.95;3.55;;;;;;;16.40;54.71;94813.09;4176216;28;20314;-75
2023/09/12 01:04:41;;;;;;;6.93;3.67;;;;;;;16.57;54.28;94817.09;4191906;28;20124;-75
2023/09/12 01:06:43;;;;;;;6.82;3.35;;;;;;;16.63;53.93;94820.78;4187817;28;20172;-76
2023/09/12 01:08:45;;;;;;;11.15;3.70;;;;;;;16.67;53.82;94816.75;4186823;28;20044;-73
2023/09/12 01:10:49;;;;;;;7.53;3.53;;;;;;;16.77;53.90;94821.69;4184287;28;20045;-76
2023/09/12 01:12:52;;;;;;;8.70;3.13;;;;;;;16.77;53.54;94827.78;4188519;28;20338;-76
2023/09/12 01:14:54;;;;;;;5.65;3.38;;;;;;;16.74;53.36;94819.44;4188135;28;20051;-75
2023/09/12 01:16:57;;;;;;;7.55;3.83;;;;;;;16.51;53.49;94823.13;4186673;28;20511;-75
2023/09/12 01:18:58;;;;;;;5.23;2.83;;;;;;;16.29;54.04;94827.66;4186445;28;20072;-73
2023/09/12 01:21:24;;;;;;;4.80;3.40;;;;;;;16.07;54.51;94828.69;4193557;28;20767;-76
2023/09/12 01:23:50;;;;;;;8.63;3.80;;;;;;;16.12;54.61;94829.75;4170593;28;20066;-76
2023/09/12 01:25:58;;;;;;;4.72;2.60;;;;;;;16.01;53.88;94826.81;4192930;28;20052;-74
2023/09/12 01:28:02;;;;;;;6.78;3.20;;;;;;;16.05;54.10;94826.25;4193092;28;20056;-75
2023/09/12 01:30:05;;;;;;;11.18;3.47;;;;;;;16.22;53.54;94833.88;4170781;28;20097;-74
2023/09/12 01:32:08;;;;;;;9.77;3.40;;;;;;;16.41;53.08;94832.41;4174025;28;20072;-75
2023/09/12 01:34:11;;;;;;;9.45;3.38;;;;;;;16.58;52.73;94828.47;4188851;28;20068;-75
2023/09/12 01:36:13;;;;;;;9.55;3.30;;;;;;;16.69;52.38;94825.31;4179965;28;20124;-74
2023/09/12 01:38:14;;;;;;;7.13;3.08;;;;;;;16.81;52.08;94827.44;4188864;28;20045;-75
2023/09/12 01:40:17;;;;;;;6.70;3.00;;;;;;;16.90;51.83;94827.09;4179372;28;20049;-76
2023/09/12 01:42:21;;;;;;;6.93;3.35;;;;;;;16.94;51.78;94820.38;4174599;28;20060;-75
2023/09/12 01:44:23;;;;;;;;;;;;;;;16.98;51.82;94826.13;4168592;28;20071;-75
2023/09/12 01:46:25;;;;;;;11.50;3.40;;;;;;;17.03;51.88;94834.28;4170006;28;19921;-75
2023/09/12 01:48:33;;;;;;;10.07;3.78;;;;;;;17.04;52.13;94827.19;4161238;28;20103;-74
2023/09/12 01:50:36;;;;;;;7.20;4.03;;;;;;;17.06;52.11;94835.75;4162968;28;20111;-75
2023/09/12 01:52:38;;;;;;;5.63;3.30;;;;;;;17.04;52.29;94830.63;4164753;28;20080;-73
2023/09/12 01:54:40;;;;;;;5.82;3.30;;;;;;;17.02;52.51;94832.66;4198218;28;20199;-74
2023/09/12 01:56:43;;;;;;;6.53;3.88;;;;;;;17.03;52.32;94831.63;4195435;28;20050;-75
2023/09/12 01:58:45;;;;;;;5.97;3.58;;;;;;;17.05;52.46;94837.53;4167483;28;20407;-75
2023/09/12 02:00:47;;;;;;;10.93;3.42;;;;;;;17.07;52.20;94829.41;4175258;28;20143;-75
2023/09/12 02:02:50;;;;;;;5.07;3.10;;;;;;;17.08;52.13;94831.03;4184773;28;20506;-74
2023/09/12 02:05:02;;;;;;;8.95;3.65;;;;;;;17.08;52.26;94836.34;4164157;28;20118;-74
2023/09/12 02:07:04;;;;;;;7.50;3.63;;;;;;;17.08;52.26;94834.53;4172102;28;20057;-75
2023/09/12 02:09:06;;;;;;;9.25;3.78;;;;;;;17.11;52.21;94838.59;4190018;28;20514;-76
2023/09/12 02:11:08;;;;;;;10.23;4.18;;;;;;;17.10;51.99;94829.84;4171309;28;20057;-75
2023/09/12 02:13:10;;;;;;;7.82;3.63;;;;;;;17.09;51.97;94838.78;4189763;28;20057;-75
2023/09/12 02:15:12;;;;;;;5.60;3.70;;;;;;;17.10;51.87;94837.78;4187306;28;20133;-75
2023/09/12 02:17:14;;;;;;;6.63;3.88;;;;;;;17.12;51.75;94840.22;4190725;28;20047;-75
2023/09/12 02:19:16;;;;;;;7.57;3.80;;;;;;;17.10;51.89;94835.16;4176354;28;20194;-74
2023/09/12 02:21:18;;;;;;;6.90;3.92;;;;;;;17.08;51.82;94828.38;4192987;28;20047;-75
2023/09/12 02:23:20;;;;;;;9.52;3.78;;;;;;;17.08;52.16;94834.53;4193840;28;20108;-76
2023/09/12 02:25:22;;;;;;;6.10;3.42;;;;;;;17.03;52.02;94830.81;4194048;28;20086;-76
2023/09/12 02:27:23;;;;;;;6.65;3.60;;;;;;;17.01;52.34;94832.84;4197509;28;20095;-75
2023/09/12 02:29:25;;;;;;;7.03;3.40;;;;;;;17.06;52.33;94836.56;4205827;28;20234;-75
2023/09/12 02:31:27;;;;;;;10.95;3.72;;;;;;;17.07;51.99;94837.34;4198157;28;20326;-74
2023/09/12 02:33:29;;;;;;;10.07;3.38;;;;;;;17.06;52.23;94833.91;4196671;28;20131;-76
2023/09/12 02:35:31;;;;;;;6.43;3.83;;;;;;;16.94;52.53;94836.25;4197074;28;20072;-74
2023/09/12 02:37:33;;;;;;;6.57;3.47;;;;;;;16.87;53.08;94834.59;4203678;28;20054;-75
2023/09/12 02:39:35;;;;;;;6.95;3.60;;;;;;;16.76;53.27;94844.69;4194328;28;20107;-75
2023/09/12 02:41:37;;;;;;;8.00;3.78;;;;;;;16.66;53.49;94841.56;4193352;28;20055;-74
2023/09/12 02:43:38;;;;;;;7.25;3.95;;;;;;;16.64;53.56;94843.56;4187523;28;20048;-75
2023/09/12 02:45:40;;;;;;;8.07;3.97;;;;;;;16.48;53.74;94843.88;4167566;28;20100;-76
2023/09/12 02:47:43;;;;;;;9.65;3.97;;;;;;;16.38;54.18;94845.00;4186157;28;20045;-74
2023/09/12 02:49:45;;;;;;;9.80;4.05;;;;;;;16.28;54.57;94852.47;4183502;28;20058;-73
2023/09/12 02:51:46;;;;;;;7.03;3.65;;;;;;;16.30;54.53;94845.13;4181700;28;20063;-74
2023/09/12 02:53:48;;;;;;;8.27;4.13;;;;;;;16.37;54.33;94837.28;4173112;28;20433;-75
2023/09/12 02:55:51;;;;;;;6.57;3.60;;;;;;;16.48;54.43;94841.22;4192956;28;20048;-73
2023/09/12 02:57:53;;;;;;;7.57;3.75;;;;;;;16.46;55.00;94836.13;4190376;28;20167;-76
2023/09/12 02:59:54;;;;;;;6.75;3.35;;;;;;;16.49;54.34;94840.22;4195067;28;20468;-75
2023/09/12 03:01:56;;;;;;;6.13;3.72;;;;;;;16.54;54.21;94836.00;4197777;28;20459;-75
2023/09/12 03:03:58;;;;;;;8.25;3.78;;;;;;;16.61;54.16;94836.03;4190329;28;20416;-75
2023/09/12 03:06:02;;;;;;;8.93;4.18;;;;;;;16.65;54.08;94841.75;4178141;28;20065;-76
2023/09/12 03:08:04;;;;;;;10.38;3.70;;;;;;;16.66;54.15;94841.56;4196271;28;20048;-75
2023/09/12 03:10:07;;;;;;;6.35;3.65;;;;;;;16.67;54.16;94840.56;4194833;28;20055;-75
2023/09/12 03:12:09;;;;;;;7.80;3.75;;;;;;;16.71;53.82;94841.81;4172291;28;20052;-75
2023/09/12 03:14:10;;;;;;;7.15;3.47;;;;;;;16.71;53.63;94839.16;4189067;28;20052;-74
2023/09/12 03:16:13;;;;;;;12.73;4.38;;;;;;;16.72;53.83;94840.78;4195536;28;20123;-74
2023/09/12 03:18:15;;;;;;;6.20;3.47;;;;;;;16.65;53.86;94834.66;4193192;28;20045;-76
2023/09/12 03:20:17;;;;;;;9.75;3.60;;;;;;;16.69;53.89;94837.69;4191760;28;20054;-76
2023/09/12 03:22:19;;;;;;;14.48;4.63;;;;;;;16.68;54.16;94838.72;4194622;28;20126;-75
2023/09/12 03:24:23;;;;;;;9.70;3.85;;;;;;;16.59;54.03;94851.28;4196012;28;20072;-75
2023/09/12 03:26:25;;;;;;;11.70;4.13;;;;;;;16.48;54.46;94857.09;4194765;28;20052;-76
2023/09/12 03:28:27;;;;;;;12.30;4.05;;;;;;;16.45;54.46;94846.88;4192102;28;20193;-76
2023/09/12 03:30:29;;;;;;;7.75;4.07;;;;;;;16.37;54.44;94851.31;4193981;28;20048;-76
2023/09/12 03:32:30;;;;;;;12.43;4.80;;;;;;;16.33;54.67;94847.41;4192293;28;20083;-75
2023/09/12 03:34:32;;;;;;;9.38;3.83;;;;;;;16.34;55.20;94849.03;4194794;28;20110;-76
2023/09/12 03:36:34;;;;;;;8.95;4.05;;;;;;;16.35;55.17;94850.69;4176292;28;20052;-76
2023/09/12 03:38:36;;;;;;;12.18;4.03;;;;;;;16.36;54.73;94849.66;4163238;28;20087;-76
2023/09/12 03:40:38;;;;;;;15.20;4.72;;;;;;;16.40;54.71;94854.59;4194099;28;20143;-76
2023/09/12 03:42:39;;;;;;;12.30;4.65;;;;;;;16.26;54.70;94849.19;4191292;28;20515;-73
2023/09/12 03:44:43;;;;;;;7.53;3.88;;;;;;;16.23;54.66;94849.56;4191358;28;20119;-74
2023/09/12 03:46:45;;;;;;;16.02;4.97;;;;;;;16.24;54.56;94859.16;4197891;28;20036;-74
2023/09/12 03:48:47;;;;;;;10.52;4.30;;;;;;;16.13;54.48;94849.91;4190072;28;20131;-75
2023/09/12 03:50:49;;;;;;;11.20;4.88;;;;;;;16.02;54.94;94853.03;4186259;28;20071;-74
2023/09/12 03:52:51;;;;;;;10.93;5.05;;;;;;;15.95;55.40;94852.16;4177938;28;20106;-75
2023/09/12 03:54:52;;;;;;;12.30;5.13;;;;;;;15.98;55.08;94854.41;4176849;28;20111;-74
2023/09/12 03:56:54;;;;;;;13.45;4.93;;;;;;;16.00;55.47;94857.69;4196355;28;20123;-75
2023/09/12 03:58:58;;;;;;;8.07;4.20;;;;;;;16.09;55.24;94861.00;4171299;28;20515;-77
2023/09/12 04:01:00;;;;;;;12.95;3.80;;;;;;;16.14;54.86;94859.44;4196914;28;20045;-74
2023/09/12 04:03:02;;;;;;;9.30;4.55;;;;;;;16.20;54.68;94860.53;4195005;28;20150;-74
2023/09/12 04:05:04;;;;;;;9.57;4.05;;;;;;;16.22;54.48;94858.50;4188356;28;20041;-75
2023/09/12 04:07:06;;;;;;;7.75;3.60;;;;;;;16.26;54.56;94859.78;4191692;28;20076;-75
2023/09/12 04:09:08;;;;;;;6.88;3.80;;;;;;;16.24;54.90;94855.66;4199025;28;20478;-77
2023/09/12 04:11:11;;;;;;;8.30;4.28;;;;;;;16.28;55.00;94860.41;4179552;28;20092;-75
2023/09/12 04:13:13;;;;;;;7.15;3.92;;;;;;;16.31;54.74;94849.44;4192108;28;20045;-75
2023/09/12 04:15:14;;;;;;;8.82;3.92;;;;;;;16.36;54.82;94860.25;4175936;28;20059;-77
2023/09/12 04:17:16;;;;;;;9.35;3.83;;;;;;;16.41;54.84;94858.84;4192058;28;20116;-76
2023/09/12 04:19:18;;;;;;;10.52;4.15;;;;;;;16.40;55.12;94858.03;4190362;28;20078;-75
2023/09/12 04:21:20;;;;;;;10.20;4.00;;;;;;;16.48;54.91;94859.75;4193151;28;20439;-76
2023/09/12 04:23:22;;;;;;;8.70;4.15;;;;;;;16.48;55.15;94867.69;4198361;28;20052;-77
2023/09/12 04:25:23;;;;;;;12.40;4.35;;;;;;;16.47;55.40;94855.44;4192902;28;20109;-77
2023/09/12 04:27:25;;;;;;;14.35;4.97;;;;;;;16.42;55.45;94853.38;4193906;28;20128;-79
2023/09/12 04:29:27;;;;;;;10.30;4.93;;;;;;;16.41;55.58;94861.50;4187676;28;20049;-76
2023/09/12 04:31:29;;;;;;;12.05;4.55;;;;;;;16.42;55.76;94855.22;4188234;28;20049;-78
2023/09/12 04:33:31;;;;;;;8.40;5.10;;;;;;;16.49;55.68;94858.72;4169372;28;20484;-77
2023/09/12 04:35:34;;;;;;;10.00;4.50;;;;;;;16.53;55.73;94862.63;4194801;28;20711;-77
2023/09/12 04:37:37;;;;;;;;;;;;;;;16.53;56.32;94867.91;4186984;28;20045;-75
2023/09/12 04:39:38;;;;;;;9.85;4.47;;;;;;;16.59;55.94;94865.31;4190429;28;19974;-76
2023/09/12 04:41:40;;;;;;;7.93;4.85;;;;;;;16.58;55.96;94863.69;4195236;28;20068;-75
2023/09/12 04:43:44;;;;;;;9.65;5.05;;;;;;;16.68;55.90;94866.00;4177806;28;20052;-78
2023/09/12 04:45:46;;;;;;;13.73;6.30;;;;;;;16.74;55.44;94865.22;4182761;28;20045;-78
2023/09/12 04:47:48;;;;;;;10.02;5.40;;;;;;;16.84;55.51;94872.84;4189834;28;20098;-75
2023/09/12 04:49:49;;;;;;;10.85;5.22;;;;;;;16.90;54.91;94868.59;4186647;28;20098;-76
2023/09/12 04:51:51;;;;;;;11.48;5.57;;;;;;;16.99;54.47;94875.38;4194193;28;20056;-77
2023/09/12 04:53:53;;;;;;;10.32;5.55;;;;;;;17.01;54.58;94868.06;4194863;28;20044;-76
2023/09/12 04:55:55;;;;;;;11.25;5.03;;;;;;;17.06;55.08;94868.31;4194437;28;20044;-75
2023/09/12 04:57:57;;;;;;;12.98;5.50;;;;;;;17.07;54.42;94867.28;4189739;28;20128;-77
2023/09/12 04:59:59;;;;;;;12.07;5.53;;;;;;;17.14;54.17;94865.50;4192208;28;20052;-78
2023/09/12 05:02:00;;;;;;;13.57;5.57;;;;;;;17.20;53.97;94870.00;4194485;28;20135;-79
2023/09/12 05:04:03;;;;;;;18.67;7.47;;;;;;;17.19;53.42;94868.38;4193907;28;20068;-74
2023/09/12 05:06:05;;;;;;;11.73;6.15;;;;;;;17.10;53.50;94874.00;4187516;28;20040;-76
2023/09/12 05:08:07;;;;;;;17.85;6.72;;;;;;;17.09;53.47;94867.91;4192148;28;20040;-77
2023/09/12 05:10:09;;;;;;;16.08;5.93;;;;;;;17.18;53.43;94877.31;4186112;28;20131;-76
2023/09/12 05:12:11;;;;;;;14.70;6.18;;;;;;;17.24;53.12;94864.31;4199287;28;20044;-75
2023/09/12 05:14:13;;;;;;;16.27;5.78;;;;;;;17.29;53.08;94869.84;4197195;28;20079;-75
2023/09/12 05:16:15;;;;;;;11.60;5.47;;;;;;;17.35;52.83;94869.88;4194965;28;20043;-75
2023/09/12 05:18:16;;;;;;;14.48;6.03;;;;;;;17.38;52.71;94864.19;4202810;28;20402;-75
2023/09/12 05:20:18;;;;;;;15.13;5.72;;;;;;;17.47;52.65;94874.63;4161715;28;20450;-75
2023/09/12 05:22:20;;;;;;;12.82;5.70;;;;;;;17.54;52.37;94870.97;4177052;28;20061;-77
2023/09/12 05:24:22;;;;;;;22.08;6.63;;;;;;;17.63;52.00;94876.09;4177287;28;20127;-77
2023/09/12 05:26:24;;;;;;;16.55;6.35;;;;;;;17.55;51.95;94875.28;4193590;28;20106;-76
2023/09/12 05:28:26;;;;;;;13.25;6.47;;;;;;;17.48;52.31;94873.59;4186486;28;20049;-77
2023/09/12 05:30:28;;;;;;;21.52;6.78;;;;;;;17.14;52.50;94875.25;4185414;28;20468;-76
2023/09/12 05:32:30;;;;;;;16.60;6.10;;;;;;;17.13;53.15;94871.81;4189578;28;20044;-74
2023/09/12 05:34:32;;;;;;;18.38;6.80;;;;;;;17.29;52.79;94875.94;4170640;28;20412;-78
2023/09/12 05:36:34;;;;;;;14.52;6.28;;;;;;;17.31;52.18;94881.06;4189397;28;20048;-75
2023/09/12 05:38:35;;;;;;;11.82;6.35;;;;;;;17.34;52.28;94880.69;4194789;28;20055;-79
2023/09/12 05:40:37;;;;;;;14.40;6.72;;;;;;;17.48;52.19;94882.34;4195322;28;20052;-77
2023/09/12 05:42:39;;;;;;;15.77;6.45;;;;;;;17.63;51.61;94889.34;4188633;28;20443;-76
2023/09/12 05:44:42;;;;;;;14.73;6.72;;;;;;;17.76;51.26;94882.25;4186621;28;20056;-76
2023/09/12 05:46:47;;;;;;;18.40;6.15;;;;;;;17.90;50.68;94885.00;4194041;28;20049;-77
2023/09/12 05:48:49;;;;;;;14.27;6.97;;;;;;;17.98;50.81;94888.28;4183435;28;20051;-77
2023/09/12 05:50:51;;;;;;;19.48;7.13;;;;;;;17.84;50.76;94880.50;4186935;28;20160;-75
2023/09/12 05:52:53;;;;;;;18.45;6.75;;;;;;;17.88;50.97;94885.19;4170691;28;20052;-77
2023/09/12 05:54:54;;;;;;;13.48;6.40;;;;;;;17.84;51.03;94881.31;4192731;28;20048;-76
2023/09/12 05:56:56;;;;;;;15.10;6.88;;;;;;;17.92;51.02;94882.97;4164721;28;20045;-77
2023/09/12 05:58:58;;;;;;;13.88;6.53;;;;;;;17.87;50.95;94878.25;4151797;28;20057;-79
2023/09/12 06:01:00;;;;;;;15.15;6.65;;;;;;;17.96;50.94;94881.53;4194864;28;20423;-78
2023/09/12 06:03:02;;;;;;;19.20;7.10;;;;;;;18.00;51.13;94886.25;4187017;28;20135;-78
2023/09/12 06:05:04;;;;;;;19.42;7.30;;;;;;;18.15;51.07;94887.88;4182735;28;20129;-77
2023/09/12 06:07:06;;;;;;;15.63;7.20;;;;;;;18.08;51.28;94879.94;4194298;28;20056;-78
2023/09/12 06:09:08;;;;;;;14.00;7.20;;;;;;;17.99;51.17;94871.34;4194259;28;20137;-76
2023/09/12 06:11:10;;;;;;;14.60;6.97;;;;;;;18.07;51.43;94885.41;4193002;28;20048;-74
2023/09/12 06:13:12;;;;;;;13.55;7.05;;;;;;;18.15;51.26;94882.59;4183921;28;20280;-77
2023/09/12 06:15:14;;;;;;;15.10;6.82;;;;;;;18.29;50.66;94884.25;4192009;28;20495;-76
2023/09/12 06:17:16;;;;;;;15.77;7.40;;;;;;;18.49;50.25;94883.44;4183931;28;20055;-76
2023/09/12 06:19:19;;;;;;;15.88;7.25;;;;;;;18.33;50.26;94887.31;4190917;28;20041;-78
2023/09/12 06:21:21;;;;;;;14.93;6.72;;;;;;;18.37;50.31;94893.88;4185765;28;20326;-76
2023/09/12 06:23:24;;;;;;;11.07;6.85;;;;;;;18.37;50.28;94893.88;4173257;28;20547;-76
2023/09/12 06:25:26;;;;;;;22.60;7.83;;;;;;;18.53;49.96;94897.94;4191695;28;20161;-76
2023/09/12 06:27:27;;;;;;;12.85;7.57;;;;;;;18.71;49.87;94898.13;4169828;28;20037;-76
2023/09/12 06:29:29;;;;;;;21.60;8.05;;;;;;;18.87;49.34;94898.78;4189947;28;20207;-76
2023/09/12 06:31:31;;;;;;;21.88;8.77;;;;;;;18.91;49.17;94900.03;4193786;28;20094;-77
2023/09/12 06:33:33;;;;;;;15.13;8.48;;;;;;;19.04;49.13;94892.03;4196147;28;20056;-77
2023/09/12 06:35:36;;;;;;;32.13;8.85;;;;;;;19.21;49.02;94893.22;4188033;28;20056;-77
2023/09/12 06:37:40;;;;;;;19.42;8.80;;;;;;;19.38;48.56;94892.75;4189289;28;20148;-76
2023/09/12 06:39:42;;;;;;;23.75;8.60;;;;;;;19.27;47.83;94896.06;4184896;28;20460;-77
2023/09/12 06:41:43;;;;;;;20.92;8.20;;;;;;;19.18;48.31;94893.63;4191412;28;20049;-78
2023/09/12 06:43:45;;;;;;;17.20;8.20;;;;;;;19.04;48.46;94897.34;4196869;28;20392;-75
2023/09/12 06:45:48;;;;;;;16.38;8.80;;;;;;;19.01;48.83;94903.06;4196122;28;20052;-78
2023/09/12 06:47:49;;;;;;;18.88;8.23;;;;;;;18.98;49.02;94908.78;4189937;28;20139;-77
2023/09/12 06:49:51;;;;;;;17.55;8.13;;;;;;;19.12;48.48;94902.44;4192402;28;20052;-77
2023/09/12 06:51:57;;;;;;;18.70;8.23;;;;;;;19.00;48.50;94899.59;4178866;28;20488;-76
2023/09/12 06:53:59;;;;;;;17.25;8.55;;;;;;;19.07;48.93;94906.72;4191206;28;20496;-78
2023/09/12 06:56:01;;;;;;;11.52;7.95;;;;;;;18.97;48.68;94904.47;4182119;28;20052;-76
2023/09/12 06:58:03;;;;;;;17.15;7.63;;;;;;;18.83;48.71;94909.00;4197610;28;20048;-74
2023/09/12 07:00:07;;;;;;;14.57;8.48;;;;;;;18.98;48.41;94903.47;4195394;28;20162;-77
2023/09/12 07:02:11;;;;;;;13.82;8.23;;;;;;;19.03;48.33;94904.47;4195516;28;20076;-79
2023/09/12 07:04:13;;;;;;;18.67;8.32;;;;;;;19.34;47.75;94904.84;4197955;28;20044;-78
2023/09/12 07:06:14;;;;;;;14.18;8.45;;;;;;;19.33;47.72;94905.84;4177819;28;20041;-76
2023/09/12 07:08:17;;;;;;;25.90;9.43;;;;;;;19.49;47.28;94904.56;4196251;28;20082;-79
2023/09/12 07:10:18;;;;;;;21.88;8.63;;;;;;;19.53;47.18;94908.44;4195527;28;20460;-80
2023/09/12 07:12:28;;;;;;;14.25;8.82;;;;;;;19.73;47.22;94905.78;4188368;28;20427;-77
2023/09/12 07:14:31;;;;;;;13.77;7.70;;;;;;;19.98;46.40;94909.34;4174081;28;20132;-76
2023/09/12 07:16:33;;;;;;;18.25;8.15;;;;;;;20.08;45.93;94913.38;4192080;28;20044;-78
2023/09/12 07:18:34;;;;;;;13.07;7.53;;;;;;;20.18;45.65;94906.56;4196526;28;20080;-76
2023/09/12 07:20:36;;;;;;;16.67;7.13;;;;;;;20.32;45.30;94907.28;4176923;28;20087;-75
2023/09/12 07:22:41;;;;;;;14.48;7.25;;;;;;;20.34;45.26;94915.88;4191142;28;20056;-75
2023/09/12 07:24:43;;;;;;;10.95;6.25;;;;;;;20.44;44.63;94910.09;4193663;28;20052;-78
2023/09/12 07:26:46;;;;;;;15.90;7.13;;;;;;;20.36;44.52;94913.00;4194793;28;20048;-77
2023/09/12 07:28:48;;;;;;;14.50;5.53;;;;;;;20.37;44.50;94911.97;4177994;28;20052;-76
2023/09/12 07:30:50;;;;;;;11.60;5.70;;;;;;;20.46;44.07;94914.16;4189839;28;20162;-77
2023/09/12 07:32:52;;;;;;;11.30;6.40;;;;;;;20.49;44.06;94918.25;4174988;28;20053;-77
2023/09/12 07:34:54;;;;;;;26.80;12.20;;;;;;;20.53;44.06;94919.44;4170466;28;20053;-78
2023/09/12 07:36:56;;;;;;;19.98;8.00;;;;;;;20.56;44.12;94918.19;4196191;28;20055;-77
2023/09/12 07:38:58;;;;;;;13.05;5.85;;;;;;;20.75;43.51;94911.94;4196455;28;20064;-78
2023/09/12 07:41:00;;;;;;;12.80;5.82;;;;;;;20.79;43.15;94912.31;4205614;28;20044;-77
2023/09/12 07:43:02;;;;;;;10.77;5.90;;;;;;;20.93;43.16;94911.19;4179002;28;20586;-77
2023/09/12 07:45:05;;;;;;;15.65;6.28;;;;;;;20.87;43.04;94912.06;4182373;28;20554;-76
2023/09/12 07:47:07;;;;;;;14.27;6.35;;;;;;;20.88;43.34;94907.53;4181341;28;20045;-76
2023/09/12 07:49:09;;;;;;;18.08;9.05;;;;;;;21.04;43.32;94907.81;4162005;28;20057;-78
2023/09/12 07:51:12;;;;;;;19.08;6.60;;;;;;;21.23;42.79;94903.31;4189450;28;20052;-77
2023/09/12 07:53:14;;;;;;;;;;;;;;;21.33;42.37;94899.34;4196095;28;20335;-79
2023/09/12 07:55:16;;;;;;;12.90;6.28;;;;;;;21.21;41.95;94902.72;4162743;28;20387;-76
2023/09/12 07:57:18;;;;;;;11.20;5.85;;;;;;;21.30;42.15;94902.44;4186634;28;20120;-78
2023/09/12 07:59:22;;;;;;;13.57;5.88;;;;;;;21.53;41.85;94902.66;4186850;28;20052;-78
2023/09/12 08:01:24;;;;;;;13.65;5.15;;;;;;;21.57;42.08;94905.66;4184259;28;20630;-75
2023/09/12 08:03:26;;;;;;;15.23;5.72;;;;;;;21.77;41.73;94900.09;4184433;28;20052;-76
2023/09/12 08:05:30;;;;;;;10.15;5.20;;;;;;;21.96;41.07;94891.06;4189815;28;20099;-77
2023/09/12 08:07:32;;;;;;;13.43;5.53;;;;;;;22.10;40.70;94899.69;4165165;28;20056;-79
2023/09/12 08:09:54;;;;;;;12.20;5.20;;;;;;;22.14;40.58;94898.19;4184422;28;20055;-77
2023/09/12 08:11:55;;;;;;;13.10;5.50;;;;;;;22.18;40.31;94907.38;4177600;28;20049;-78
2023/09/12 08:13:57;;;;;;;14.18;5.15;;;;;;;22.23;40.30;94901.38;4170126;28;20526;-76
2023/09/12 08:15:59;;;;;;;9.75;4.82;;;;;;;21.73;40.96;94904.25;4194398;28;20066;-77
2023/09/12 08:18:02;;;;;;;11.75;5.38;;;;;;;21.52;41.32;94902.84;4193906;28;20068;-77
2023/09/12 08:20:05;;;;;;;12.93;5.55;;;;;;;21.54;41.55;94908.78;4193882;28;20052;-76
2023/09/12 08:22:08;;;;;;;13.13;5.65;;;;;;;21.61;40.92;94904.97;4192052;28;20103;-79
2023/09/12 08:24:10;;;;;;;15.13;5.65;;;;;;;21.90;40.71;94894.63;4193823;28;20388;-77
2023/09/12 08:26:12;;;;;;;13.98;5.47;;;;;;;22.14;40.13;94900.84;4195018;28;20055;-77
2023/09/12 08:28:13;;;;;;;15.65;5.85;;;;;;;22.41;39.64;94904.00;4194833;28;20094;-77
2023/09/12 08:30:16;;;;;;;11.73;5.82;;;;;;;22.52;39.42;94896.25;4193658;28;20045;-77
2023/09/12 08:32:18;;;;;;;11.35;5.32;;;;;;;22.33;39.82;94899.00;4191363;28;20120;-77
2023/09/12 08:34:20;;;;;;;12.50;5.60;;;;;;;22.48;39.59;94904.72;4180055;28;20048;-78
2023/09/12 08:36:22;;;;;;;10.90;5.50;;;;;;;22.58;39.18;94895.31;4194095;28;20475;-78
2023/09/12 08:38:24;;;;;;;11.80;5.65;;;;;;;22.76;38.88;94891.75;4186931;28;20075;-76
2023/09/12 08:40:26;;;;;;;12.85;5.18;;;;;;;22.68;39.03;94882.22;4184981;28;20051;-77
2023/09/12 08:42:29;;;;;;;15.35;5.82;;;;;;;22.75;39.19;94882.94;4184410;28;20056;-77
2023/09/12 08:44:30;;;;;;;14.75;5.78;;;;;;;22.83;38.53;94879.94;4174552;28;20131;-76
2023/09/12 08:46:32;;;;;;;16.10;5.75;;;;;;;22.79;38.48;94880.63;4173077;28;20424;-76
2023/09/12 08:48:37;;;;;;;12.93;5.65;;;;;;;22.79;38.55;94878.75;4179497;28;20052;-76
2023/09/12 08:50:39;;;;;;;16.92;5.63;;;;;;;22.89;38.47;94880.88;4171678;28;20468;-76
2023/09/12 08:52:43;;;;;;;15.50;5.78;;;;;;;22.84;38.44;94875.38;4193376;28;20052;-80
2023/09/12 08:55:05;;;;;;;15.90;5.90;;;;;;;22.87;37.89;94878.44;4189075;28;20468;-76
2023/09/12 08:57:08;;;;;;;11.15;5.90;;;;;;;22.92;38.28;94874.25;4174609;28;20273;-77
2023/09/12 08:59:10;;;;;;;11.13;5.90;;;;;;;22.94;37.76;94885.50;4175060;28;20563;-77
2023/09/12 09:01:13;;;;;;;12.23;5.05;;;;;;;22.89;37.55;94881.69;4177329;28;20106;-77
2023/09/12 09:03:16;;;;;;;10.48;5.15;;;;;;;22.84;37.35;94889.59;4180162;28;20064;-77
2023/09/12 09:05:21;;;;;;;10.68;4.57;;;;;;;22.85;37.97;94885.84;4189212;28;20057;-74
2023/09/12 09:07:25;;;;;;;11.38;4.93;;;;;;;23.17;37.48;94885.56;4194142;28;20144;-75
2023/09/12 09:09:30;;;;;;;13.30;5.53;;;;;;;23.28;36.70;94882.06;4179348;28;20079;-74
2023/09/12 09:11:32;;;;;;;10.95;5.22;;;;;;;23.20;36.56;94882.41;4193611;28;20094;-75
2023/09/12 09:13:33;;;;;;;10.65;4.95;;;;;;;23.21;36.68;94868.00;4172808;28;20508;-75
2023/09/12 09:15:37;;;;;;;10.10;4.63;;;;;;;23.14;37.01;94869.16;4193798;28;20355;-77
2023/09/12 09:17:38;;;;;;;;;;;;;;;23.06;36.96;94873.81;4190603;28;20044;-76
2023/09/12 09:19:47;;;;;;;11.93;4.68;;;;;;;23.27;36.28;94868.91;4179699;28;19921;-75
2023/09/12 09:21:49;;;;;;;7.47;4.40;;;;;;;23.37;36.02;94871.00;4183201;28;20147;-76
2023/09/12 09:23:52;;;;;;;12.20;4.60;;;;;;;23.46;36.21;94869.59;4196676;28;20060;-77
2023/09/12 09:25:54;;;;;;;7.35;4.25;;;;;;;23.24;36.37;94867.53;4181513;28;20057;-76
2023/09/12 09:27:56;;;;;;;8.23;4.22;;;;;;;23.26;36.53;94859.28;4198961;28;20040;-76
2023/09/12 09:29:58;;;;;;;14.50;4.43;;;;;;;23.39;36.47;94858.22;4190543;28;20396;-75
2023/09/12 09:32:01;;;;;;;10.63;4.20;;;;;;;23.59;36.32;94860.50;4174774;28;20057;-77
2023/09/12 09:34:03;;;;;;;8.00;4.05;;;;;;;23.84;35.91;94858.38;4199559;28;20494;-76